Time;durP1;ratioP1;P1;durP2;ratioP2;P2;SDS_P1;SDS_P2;PMS_P1;PMS_P2;Temp;Humidity;BMP_temperature;BMP_pressure;BME280_temperature;BME280_humidity;BME280_pressure;Samples;Min_cycle;Max_cycle;Signal;HPM_P1;HPM_P2
2022/11/10 00:06:08;;;;;;;1999.90;999.90;;;11.20;99.90;;;;;;6718272;88;20649;-79
2022/11/10 00:26:28;;;;;;;1999.90;999.90;;;11.20;99.90;;;;;;6718682;88;20201;-80
2022/11/10 00:36:29;;;;;;;1999.90;999.90;;;11.10;99.90;;;;;;6720704;88;20310;-79
2022/11/10 00:46:29;;;;;;;1999.90;999.90;;;10.80;99.90;;;;;;6725584;88;20664;-79
2022/11/10 00:56:30;;;;;;;1999.90;999.90;;;10.60;99.90;;;;;;6741048;87;20227;-79
2022/11/10 01:06:30;;;;;;;1999.90;999.90;;;10.60;99.90;;;;;;6736399;88;20712;-78
2022/11/10 01:16:31;;;;;;;1999.90;999.90;;;10.60;99.90;;;;;;6742870;88;20194;-78
2022/11/10 01:26:32;;;;;;;1999.90;999.90;;;10.60;99.90;;;;;;6742465;88;20228;-79
2022/11/10 01:36:32;;;;;;;1999.90;999.90;;;10.70;99.90;;;;;;6732580;88;20273;-79
2022/11/10 01:46:33;;;;;;;1999.90;999.90;;;10.70;99.90;;;;;;6732307;88;20342;-79
2022/11/10 01:56:38;;;;;;;1999.90;999.90;;;10.80;99.90;;;;;;6736588;88;20223;-78
2022/11/10 02:06:40;;;;;;;1999.90;999.90;;;10.70;99.90;;;;;;6741735;88;20221;-78
2022/11/10 02:16:42;;;;;;;1999.90;999.90;;;10.70;99.90;;;;;;6745312;88;20212;-78
2022/11/10 02:26:51;;;;;;;1999.90;999.90;;;10.70;99.90;;;;;;6727122;88;20670;-78
2022/11/10 02:36:52;;;;;;;1999.90;999.90;;;10.60;99.90;;;;;;6737131;88;20190;-78
2022/11/10 02:46:52;;;;;;;1999.90;999.90;;;10.60;99.90;;;;;;6740861;88;20238;-78
2022/11/10 02:56:53;;;;;;;1999.90;999.90;;;10.60;99.90;;;;;;6756063;88;20220;-77
2022/11/10 03:06:53;;;;;;;1999.90;999.90;;;10.60;99.90;;;;;;6754818;87;20204;-77
2022/11/10 03:16:54;;;;;;;1999.90;999.90;;;10.50;99.90;;;;;;6738894;88;20222;-78
2022/11/10 03:26:54;;;;;;;1999.90;999.90;;;10.40;99.90;;;;;;6745903;88;20198;-78
2022/11/10 03:36:55;;;;;;;1999.90;999.90;;;10.20;99.90;;;;;;6740812;88;20518;-78
2022/11/10 03:46:55;;;;;;;1999.90;999.90;;;10.10;99.90;;;;;;6738243;88;20216;-78
2022/11/10 03:56:56;;;;;;;1999.90;999.90;;;10.10;99.90;;;;;;6743235;88;20193;-78
2022/11/10 04:17:15;;;;;;;1999.90;999.90;;;9.90;99.90;;;;;;6739364;88;20224;-78
2022/11/10 04:27:16;;;;;;;1999.90;999.90;;;10.00;99.90;;;;;;6739851;88;20831;-78
2022/11/10 04:37:16;;;;;;;1999.90;999.90;;;10.10;99.90;;;;;;6734116;88;20292;-78
2022/11/10 04:47:17;;;;;;;1999.90;999.90;;;9.80;99.90;;;;;;6746303;88;20328;-77
2022/11/10 04:57:17;;;;;;;1999.90;999.90;;;9.80;99.90;;;;;;6732315;88;20222;-78
2022/11/10 05:07:18;;;;;;;1999.90;999.90;;;9.70;99.90;;;;;;6741744;88;20257;-78
2022/11/10 05:17:19;;;;;;;1999.90;999.90;;;9.60;99.90;;;;;;6741182;88;20173;-78
2022/11/10 05:27:19;;;;;;;1999.90;999.90;;;9.60;99.90;;;;;;6745424;88;20192;-78
2022/11/10 05:37:20;;;;;;;1999.90;999.90;;;9.50;99.90;;;;;;6738148;88;20192;-77
2022/11/10 05:47:20;;;;;;;1999.90;999.90;;;9.40;99.90;;;;;;6727954;88;20647;-78
2022/11/10 05:57:21;;;;;;;1999.90;999.90;;;9.40;99.90;;;;;;6738830;88;20306;-78
2022/11/10 06:07:21;;;;;;;1999.90;999.90;;;9.30;99.90;;;;;;6735423;88;20232;-78
2022/11/10 06:17:23;;;;;;;1999.90;999.90;;;9.50;99.90;;;;;;6738683;88;20525;-77
2022/11/10 06:27:24;;;;;;;1999.90;999.90;;;9.60;99.90;;;;;;6734714;88;20278;-77
2022/11/10 06:38:05;;;;;;;1999.90;999.90;;;9.70;99.90;;;;;;6735305;76;20213;-77
2022/11/10 06:48:13;;;;;;;1999.90;999.90;;;9.60;99.90;;;;;;6743896;88;20648;-78
2022/11/10 06:58:15;;;;;;;1999.90;999.90;;;9.60;99.90;;;;;;6734348;88;20363;-77
2022/11/10 07:08:15;;;;;;;1999.90;999.90;;;9.60;99.90;;;;;;6738675;88;20322;-78
2022/11/10 07:18:16;;;;;;;1999.90;999.90;;;9.50;99.90;;;;;;6747868;88;20213;-77
2022/11/10 07:28:17;;;;;;;1999.90;999.90;;;9.70;99.90;;;;;;6758891;88;20197;-77
2022/11/10 07:38:17;;;;;;;1999.90;999.90;;;10.00;99.90;;;;;;6752664;88;20228;-77
2022/11/10 07:48:18;;;;;;;1999.90;999.90;;;10.30;99.90;;;;;;6752962;88;20193;-77
2022/11/10 07:58:19;;;;;;;1999.90;999.90;;;10.50;99.90;;;;;;6737337;88;20200;-77
2022/11/10 08:08:19;;;;;;;1999.90;999.90;;;10.80;99.90;;;;;;6734949;88;20628;-78
2022/11/10 08:18:22;;;;;;;1999.90;999.90;;;11.20;99.90;;;;;;6733163;88;20323;-78
2022/11/10 08:28:22;;;;;;;1999.90;999.90;;;11.60;99.90;;;;;;6732759;88;20193;-78
2022/11/10 08:38:23;;;;;;;1999.90;999.90;;;12.10;99.90;;;;;;6740029;88;20672;-78
2022/11/10 08:48:24;;;;;;;1999.90;999.90;;;12.40;99.90;;;;;;6725695;88;20182;-78
2022/11/10 08:58:24;;;;;;;1999.90;999.90;;;13.00;99.90;;;;;;6735251;87;20725;-77
2022/11/10 09:08:25;;;;;;;1999.90;999.90;;;13.70;99.90;;;;;;6725710;88;20586;-78
2022/11/10 09:18:26;;;;;;;1999.90;999.90;;;13.90;99.90;;;;;;6735359;88;20173;-75
2022/11/10 09:28:26;;;;;;;1999.90;999.90;;;14.00;99.90;;;;;;6737865;88;20232;-76
2022/11/10 09:38:27;;;;;;;1999.90;999.90;;;14.40;99.90;;;;;;6738407;88;20189;-76
2022/11/10 09:48:34;;;;;;;1999.90;999.90;;;15.20;99.90;;;;;;6732659;88;20714;-77
2022/11/10 09:58:43;;;;;;;1999.90;999.90;;;15.20;99.90;;;;;;6730853;88;20291;-77
2022/11/10 10:08:59;;;;;;;1999.90;999.90;;;15.90;99.90;;;;;;6729445;88;20504;-77
2022/11/10 10:19:23;;;;;;;1999.90;999.90;;;15.70;99.90;;;;;;6731191;88;20197;-77
2022/11/10 10:29:41;;;;;;;1999.90;999.90;;;16.00;99.90;;;;;;6737484;88;20723;-78
2022/11/10 10:39:45;;;;;;;1999.90;999.90;;;16.20;99.90;;;;;;6737148;88;20206;-77
2022/11/10 10:49:46;;;;;;;1999.90;999.90;;;16.30;99.90;;;;;;6725072;88;20222;-77
2022/11/10 10:59:46;;;;;;;1999.90;999.90;;;16.30;99.90;;;;;;6735116;88;20197;-77
2022/11/10 11:09:47;;;;;;;1999.90;999.90;;;16.20;99.90;;;;;;6739459;88;20216;-78
2022/11/10 11:19:51;;;;;;;1999.90;999.90;;;15.90;99.90;;;;;;6730670;88;20704;-77
2022/11/10 11:30:02;;;;;;;1999.90;999.90;;;16.20;99.90;;;;;;6736259;88;20638;-77
2022/11/10 11:40:25;;;;;;;1999.90;999.90;;;16.10;99.90;;;;;;6744112;88;20355;-77
2022/11/10 11:51:07;;;;;;;1999.90;999.90;;;16.60;99.90;;;;;;6744807;88;20209;-78
2022/11/10 12:01:19;;;;;;;1999.90;999.90;;;17.00;99.90;;;;;;6728131;87;20301;-77
2022/11/10 12:11:30;;;;;;;1999.90;999.90;;;18.30;99.90;;;;;;6733537;88;20200;-77
2022/11/10 12:22:12;;;;;;;1999.90;999.90;;;18.00;99.90;;;;;;6725169;88;20208;-77
2022/11/10 12:32:26;;;;;;;1999.90;999.90;;;19.10;99.90;;;;;;6725715;76;20570;-79
2022/11/10 12:42:29;;;;;;;1999.90;999.90;;;18.40;99.90;;;;;;6734976;88;20339;-79
2022/11/10 12:52:39;;;;;;;1999.90;999.90;;;19.80;99.90;;;;;;6735640;88;20223;-78
2022/11/10 13:02:45;;;;;;;1999.90;999.90;;;19.60;99.90;;;;;;6740467;88;20212;-79
2022/11/10 13:12:58;;;;;;;1999.90;999.90;;;20.30;99.90;;;;;;6742846;88;20647;-78
2022/11/10 13:22:58;;;;;;;1999.90;999.90;;;19.10;99.90;;;;;;6733665;88;20200;-78
2022/11/10 13:33:24;;;;;;;1999.90;999.90;;;18.40;99.90;;;;;;6733885;88;20216;-78
2022/11/10 13:43:25;;;;;;;1999.90;999.90;;;18.80;99.90;;;;;;6733898;88;20587;-77
2022/11/10 13:53:33;;;;;;;1999.90;999.90;;;18.00;99.90;;;;;;6732854;88;20214;-78
2022/11/10 14:03:46;;;;;;;1999.90;999.90;;;17.50;99.90;;;;;;6728950;88;20260;-77
2022/11/10 14:13:54;;;;;;;1999.90;999.90;;;18.10;99.90;;;;;;6729456;88;20392;-78
2022/11/10 14:24:19;;;;;;;1999.90;999.90;;;16.70;99.90;;;;;;6750533;88;20695;-78
2022/11/10 14:34:22;;;;;;;1999.90;999.90;;;16.30;99.90;;;;;;6728391;88;20574;-78
2022/11/10 14:44:25;;;;;;;1999.90;999.90;;;15.80;99.90;;;;;;6732225;88;20185;-78
2022/11/10 14:54:27;;;;;;;1999.90;999.90;;;15.20;99.90;;;;;;6731769;88;20270;-79
2022/11/10 15:04:31;;;;;;;1999.90;999.90;;;14.70;99.90;;;;;;6731827;88;20216;-77
2022/11/10 15:14:39;;;;;;;1999.90;999.90;;;14.20;99.90;;;;;;6731933;88;20199;-77
2022/11/10 15:24:45;;;;;;;1999.90;999.90;;;13.80;99.90;;;;;;6734545;88;20187;-78
2022/11/10 15:34:46;;;;;;;;;;;13.30;99.90;;;;;;6752813;87;20563;-77
2022/11/10 15:44:47;;;;;;;1999.90;999.90;;;13.10;99.90;;;;;;6750886;88;20521;-78
2022/11/10 15:54:49;;;;;;;1999.90;999.90;;;12.80;99.90;;;;;;6751834;88;20186;-78
2022/11/10 16:04:53;;;;;;;1999.90;999.90;;;12.40;99.90;;;;;;6737227;88;20204;-77
2022/11/10 16:14:58;;;;;;;1999.90;999.90;;;12.20;99.90;;;;;;6745596;88;20206;-79
2022/11/10 16:24:59;;;;;;;1999.90;999.90;;;12.10;99.90;;;;;;6743199;88;20234;-79
2022/11/10 16:34:59;;;;;;;1999.90;999.90;;;11.90;99.90;;;;;;6741683;88;20803;-78
2022/11/10 16:45:00;;;;;;;1999.90;999.90;;;11.70;99.90;;;;;;6745756;88;20656;-78
2022/11/10 16:55:00;;;;;;;1999.90;999.90;;;11.60;99.90;;;;;;6742961;88;20205;-78
2022/11/10 17:05:01;;;;;;;1999.90;999.90;;;11.50;99.90;;;;;;6745333;88;20212;-78
2022/11/10 17:15:02;;;;;;;1999.90;999.90;;;11.40;99.90;;;;;;6744636;88;20196;-79
2022/11/10 17:25:03;;;;;;;1999.90;999.90;;;11.50;99.90;;;;;;6751176;88;20215;-79
2022/11/10 17:35:04;;;;;;;1999.90;999.90;;;11.50;99.90;;;;;;6747165;88;20215;-77
2022/11/10 17:45:05;;;;;;;1999.90;999.90;;;11.40;99.90;;;;;;6741951;88;20695;-79
2022/11/10 17:55:06;;;;;;;1999.90;999.90;;;11.10;99.90;;;;;;6747274;88;20184;-76
2022/11/10 18:05:17;;;;;;;1999.90;999.90;;;10.90;99.90;;;;;;6748448;88;20226;-77
2022/11/10 18:15:17;;;;;;;1999.90;999.90;;;10.80;99.90;;;;;;6747110;88;20675;-77
2022/11/10 18:25:18;;;;;;;1999.90;999.90;;;10.70;99.90;;;;;;6748508;88;20204;-77
2022/11/10 18:46:20;;;;;;;1999.90;999.90;;;10.50;99.90;;;;;;6674487;88;21050;-78
2022/11/10 18:56:21;;;;;;;1999.90;999.90;;;10.50;99.90;;;;;;6673820;89;20195;-79
2022/11/10 19:06:21;;;;;;;1999.90;999.90;;;10.40;99.90;;;;;;6671007;89;20204;-78
2022/11/10 19:16:22;;;;;;;1999.90;999.90;;;10.40;99.90;;;;;;6671031;89;20329;-78
2022/11/10 19:26:25;;;;;;;1999.90;999.90;;;10.30;99.90;;;;;;6685782;88;20526;-78
2022/11/10 19:36:27;;;;;;;1999.90;999.90;;;10.20;99.90;;;;;;6671642;89;20269;-78
2022/11/10 19:46:29;;;;;;;1999.90;999.90;;;10.10;99.90;;;;;;6685275;88;20199;-79
2022/11/10 19:56:32;;;;;;;1999.90;999.90;;;10.10;99.90;;;;;;6671159;89;20248;-79
2022/11/10 20:06:32;;;;;;;1999.90;999.90;;;10.10;99.90;;;;;;6670646;89;20190;-78
2022/11/10 20:16:33;;;;;;;1999.90;999.90;;;10.00;99.90;;;;;;6671704;89;20215;-78
2022/11/10 20:26:33;;;;;;;1999.90;999.90;;;9.80;99.90;;;;;;6672079;89;20236;-79
2022/11/10 20:36:34;;;;;;;1999.90;999.90;;;9.80;99.90;;;;;;6672175;89;20221;-78
2022/11/10 20:46:35;;;;;;;1999.90;999.90;;;9.80;99.90;;;;;;6668739;89;20208;-78
2022/11/10 20:56:35;;;;;;;1999.90;999.90;;;9.70;99.90;;;;;;6669817;89;20204;-79
2022/11/10 21:06:37;;;;;;;1999.90;999.90;;;9.70;99.90;;;;;;6671339;89;20272;-78
2022/11/10 21:16:37;;;;;;;1999.90;999.90;;;9.60;99.90;;;;;;6671215;89;20246;-78
2022/11/10 21:26:38;;;;;;;1999.90;999.90;;;9.60;99.90;;;;;;6671224;89;20793;-78
2022/11/10 21:36:39;;;;;;;1999.90;999.90;;;9.50;99.90;;;;;;6671118;89;20483;-78
2022/11/10 21:46:39;;;;;;;1999.90;999.90;;;9.50;99.90;;;;;;6671538;88;20179;-78
2022/11/10 21:56:40;;;;;;;1999.90;999.90;;;9.50;99.90;;;;;;6670814;88;20199;-78
2022/11/10 22:27:19;;;;;;;1999.90;999.90;;;9.30;99.90;;;;;;6656310;89;20184;-79
2022/11/10 22:37:21;;;;;;;1999.90;999.90;;;9.20;99.90;;;;;;6668795;88;20997;-78
2022/11/10 22:47:21;;;;;;;1999.90;999.90;;;9.20;99.90;;;;;;6655433;89;20261;-78
2022/11/10 22:57:22;;;;;;;1999.90;999.90;;;9.10;99.90;;;;;;6656183;89;20204;-77
2022/11/10 23:07:22;;;;;;;1999.90;999.90;;;9.00;99.90;;;;;;6655828;89;20714;-78
2022/11/10 23:17:23;;;;;;;1999.90;999.90;;;9.00;99.90;;;;;;6655889;89;20693;-79
2022/11/10 23:27:23;;;;;;;1999.90;999.90;;;8.90;99.90;;;;;;6654232;89;20253;-79
2022/11/10 23:37:24;;;;;;;1999.90;999.90;;;8.90;99.90;;;;;;6669809;88;20261;-78
2022/11/10 23:47:24;;;;;;;1999.90;999.90;;;8.90;99.90;;;;;;6656221;89;20299;-78
2022/11/10 23:57:25;;;;;;;1999.90;999.90;;;8.80;99.90;;;;;;6652053;89;20207;-79
